createdAt,value
2018-05-06T00:01:54.379Z,16.93
2018-05-06T00:04:20.251Z,16.88
2018-05-06T00:06:46.167Z,16.73
2018-05-06T00:09:12.060Z,16.71
2018-05-06T00:11:37.987Z,16.74
2018-05-06T00:14:03.866Z,16.81
2018-05-06T00:16:29.819Z,16.83
2018-05-06T00:18:55.761Z,16.88
2018-05-06T00:21:21.660Z,16.81
2018-05-06T00:23:47.550Z,16.72
2018-05-06T00:26:13.468Z,16.80
2018-05-06T00:28:39.404Z,16.83
2018-05-06T00:31:05.318Z,16.75
2018-05-06T00:33:31.236Z,16.74
2018-05-06T00:35:57.119Z,16.78
2018-05-06T00:38:22.999Z,16.75
2018-05-06T00:40:48.901Z,16.69
2018-05-06T00:43:14.791Z,16.72
2018-05-06T00:45:40.664Z,16.80
2018-05-06T00:48:06.555Z,16.67
2018-05-06T00:50:32.479Z,16.70
2018-05-06T00:52:58.365Z,16.69
2018-05-06T00:55:24.355Z,16.57
2018-05-06T00:57:50.245Z,16.54
2018-05-06T01:00:16.142Z,16.50
2018-05-06T01:02:42.018Z,16.47
2018-05-06T01:05:07.929Z,16.40
2018-05-06T01:07:33.856Z,16.33
2018-05-06T01:09:59.756Z,16.29
2018-05-06T01:12:25.667Z,16.24
2018-05-06T01:14:51.956Z,16.14
2018-05-06T01:17:17.903Z,16.12
2018-05-06T01:19:43.794Z,16.13
2018-05-06T01:22:09.720Z,16.18
2018-05-06T01:24:35.654Z,16.10
2018-05-06T01:27:01.572Z,16.10
2018-05-06T01:29:27.433Z,16.05
2018-05-06T01:31:53.400Z,16.00
2018-05-06T01:34:19.241Z,16.04
2018-05-06T01:36:45.153Z,15.99
2018-05-06T01:39:11.053Z,15.93
2018-05-06T01:41:36.999Z,15.91
2018-05-06T01:44:02.941Z,15.83
2018-05-06T01:46:28.872Z,15.88
2018-05-06T01:48:54.765Z,15.71
2018-05-06T01:51:20.656Z,15.73
2018-05-06T01:53:46.574Z,15.69
2018-05-06T01:56:12.485Z,15.52
2018-05-06T01:58:38.363Z,15.39
2018-05-06T02:01:04.298Z,15.43
2018-05-06T02:03:30.205Z,15.14
2018-05-06T02:05:56.115Z,15.17
2018-05-06T02:08:22.027Z,15.18
2018-05-06T02:10:47.951Z,15.15
2018-05-06T02:13:13.797Z,15.32
2018-05-06T02:15:43.686Z,15.29
2018-05-06T02:18:09.583Z,15.29
2018-05-06T02:20:38.650Z,15.19
2018-05-06T02:23:04.543Z,15.27
2018-05-06T02:25:31.740Z,15.26
2018-05-06T02:27:57.639Z,15.24
2018-05-06T02:30:28.408Z,15.19
2018-05-06T02:32:54.268Z,15.29
2018-05-06T02:35:21.011Z,15.22
2018-05-06T02:37:46.925Z,15.21
2018-05-06T02:40:12.813Z,15.22
2018-05-06T02:42:38.703Z,15.05
2018-05-06T02:45:04.592Z,15.03
2018-05-06T02:47:32.913Z,14.86
2018-05-06T02:49:58.863Z,14.86
2018-05-06T02:52:28.269Z,14.73
2018-05-06T02:54:54.200Z,14.82
2018-05-06T02:57:23.198Z,14.78
2018-05-06T02:59:49.183Z,14.76
2018-05-06T03:02:17.232Z,14.77
2018-05-06T03:04:43.069Z,14.68
2018-05-06T03:07:12.572Z,14.70
2018-05-06T03:09:38.471Z,14.70
2018-05-06T03:12:07.863Z,14.76
2018-05-06T03:14:33.787Z,14.81
2018-05-06T03:16:59.685Z,14.78
2018-05-06T03:19:25.646Z,14.71
2018-05-06T03:21:51.552Z,14.67
2018-05-06T03:24:18.257Z,14.59
2018-05-06T03:26:44.141Z,14.56
2018-05-06T03:29:13.812Z,14.58
2018-05-06T03:31:39.748Z,14.56
2018-05-06T03:34:07.616Z,14.55
2018-05-06T03:36:33.519Z,14.45
2018-05-06T03:39:02.647Z,14.39
2018-05-06T03:41:28.542Z,14.26
2018-05-06T03:43:57.479Z,14.35
2018-05-06T03:46:23.395Z,14.33
2018-05-06T03:48:53.283Z,14.32
2018-05-06T03:51:19.185Z,14.28
2018-05-06T03:53:45.071Z,14.23
2018-05-06T03:59:30.214Z,14.27
2018-05-06T04:15:32.512Z,14.36
2018-05-06T04:17:58.403Z,14.43
2018-05-06T04:20:24.264Z,14.41
2018-05-06T04:22:50.172Z,14.44
2018-05-06T04:25:16.020Z,14.54
2018-05-06T04:27:41.940Z,14.61
2018-05-06T04:30:07.887Z,14.49
2018-05-06T04:32:33.855Z,14.40
2018-05-06T04:34:59.791Z,14.36
2018-05-06T04:37:25.693Z,14.38
2018-05-06T04:39:51.612Z,14.47
2018-05-06T04:42:17.508Z,14.57
2018-05-06T04:44:43.418Z,14.61
2018-05-06T04:47:09.311Z,14.66
2018-05-06T04:49:35.257Z,14.81
2018-05-06T04:52:01.136Z,14.86
2018-05-06T04:54:27.056Z,14.93
2018-05-06T04:56:53.025Z,14.97
2018-05-06T04:59:18.917Z,15.05
2018-05-06T05:01:44.814Z,15.13
2018-05-06T05:04:10.699Z,15.11
2018-05-06T05:06:36.618Z,15.18
2018-05-06T05:09:02.563Z,15.16
2018-05-06T05:11:28.439Z,15.28
2018-05-06T05:13:54.354Z,15.15
2018-05-06T05:16:20.313Z,15.17
2018-05-06T05:18:46.122Z,15.37
2018-05-06T05:21:12.029Z,15.43
2018-05-06T05:23:37.894Z,15.53
2018-05-06T05:26:03.817Z,15.42
2018-05-06T05:28:29.711Z,15.65
2018-05-06T05:30:55.555Z,15.91
2018-05-06T05:33:21.444Z,16.04
2018-05-06T05:35:47.352Z,16.15
2018-05-06T05:38:13.254Z,16.20
2018-05-06T05:40:39.166Z,16.29
2018-05-06T05:43:05.081Z,16.30
2018-05-06T05:45:30.977Z,16.28
2018-05-06T05:47:56.938Z,16.42
2018-05-06T05:50:22.771Z,16.40
2018-05-06T05:52:48.659Z,16.46
2018-05-06T05:55:14.557Z,16.67
2018-05-06T05:57:40.483Z,16.78
2018-05-06T06:00:06.385Z,16.85
2018-05-06T06:02:32.263Z,16.97
2018-05-06T06:04:58.132Z,17.12
2018-05-06T06:07:24.063Z,17.22
2018-05-06T06:09:50.045Z,17.36
2018-05-06T06:12:15.863Z,17.32
2018-05-06T06:14:42.515Z,17.43
2018-05-06T06:17:08.455Z,17.52
2018-05-06T06:19:34.353Z,17.62
2018-05-06T06:22:00.215Z,17.78
2018-05-06T06:24:26.188Z,17.77
2018-05-06T06:26:53.646Z,17.97
2018-05-06T06:29:19.556Z,18.10
2018-05-06T06:31:48.740Z,18.04
2018-05-06T06:34:14.648Z,18.06
2018-05-06T06:36:43.760Z,18.31
2018-05-06T06:39:09.647Z,18.37
2018-05-06T06:41:35.571Z,18.46
2018-05-06T06:44:01.484Z,18.64
2018-05-06T06:46:27.407Z,18.89
2018-05-06T06:48:54.920Z,19.04
2018-05-06T06:51:20.845Z,19.21
2018-05-06T06:53:49.896Z,19.29
2018-05-06T06:56:15.817Z,19.43
2018-05-06T06:58:45.043Z,19.66
2018-05-06T07:01:10.997Z,19.56
2018-05-06T07:03:40.438Z,19.44
2018-05-06T07:06:06.335Z,19.41
2018-05-06T07:08:33.589Z,19.29
2018-05-06T07:10:59.458Z,18.79
2018-05-06T07:13:28.676Z,19.06
2018-05-06T07:15:54.587Z,19.28
2018-05-06T07:18:20.502Z,19.24
2018-05-06T07:20:46.350Z,19.52
2018-05-06T07:23:12.240Z,19.44
2018-05-06T07:25:41.656Z,19.41
2018-05-06T07:28:07.543Z,19.05
2018-05-06T07:30:34.707Z,19.60
2018-05-06T07:33:00.575Z,19.71
2018-05-06T07:35:30.199Z,19.95
2018-05-06T07:37:56.066Z,20.24
2018-05-06T07:40:25.539Z,20.30
2018-05-06T07:42:51.436Z,20.56
2018-05-06T07:45:18.887Z,20.24
2018-05-06T07:47:44.758Z,19.52
2018-05-06T07:50:13.760Z,19.82
2018-05-06T07:52:39.617Z,20.17
2018-05-06T07:55:05.509Z,20.27
2018-05-06T07:57:31.420Z,19.97
2018-05-06T07:59:57.331Z,20.42
2018-05-06T08:02:25.539Z,20.38
2018-05-06T08:04:51.439Z,20.63
2018-05-06T08:07:20.872Z,20.67
2018-05-06T08:09:46.759Z,20.88
2018-05-06T08:12:14.867Z,21.28
2018-05-06T08:14:41.451Z,21.11
2018-05-06T08:17:10.924Z,21.48
2018-05-06T08:19:36.816Z,21.63
2018-05-06T08:22:05.877Z,21.52
2018-05-06T08:24:31.777Z,21.58
2018-05-06T08:26:58.788Z,21.85
2018-05-06T08:29:24.693Z,21.76
2018-05-06T08:31:50.618Z,21.72
2018-05-06T08:34:16.548Z,21.55
2018-05-06T08:36:42.439Z,21.91
2018-05-06T08:39:12.184Z,21.38
2018-05-06T08:41:38.063Z,20.77
2018-05-06T08:44:05.443Z,21.17
2018-05-06T08:46:31.361Z,21.82
2018-05-06T08:49:00.331Z,21.39
2018-05-06T08:51:26.269Z,21.24
2018-05-06T08:53:55.543Z,21.87
2018-05-06T08:56:21.448Z,22.53
2018-05-06T08:58:49.486Z,22.53
2018-05-06T09:01:15.381Z,22.70
2018-05-06T09:03:44.944Z,22.65
2018-05-06T09:06:10.888Z,23.09
2018-05-06T09:08:36.791Z,23.54
2018-05-06T09:11:02.764Z,23.84
2018-05-06T09:13:28.661Z,23.91
2018-05-06T09:15:56.347Z,24.16
2018-05-06T09:18:22.228Z,23.91
2018-05-06T09:20:51.566Z,24.11
2018-05-06T09:23:17.463Z,24.29
2018-05-06T09:25:45.435Z,24.63
2018-05-06T09:28:11.308Z,24.71
2018-05-06T09:30:40.556Z,24.93
2018-05-06T09:33:06.440Z,24.95
2018-05-06T09:35:36.416Z,25.09
2018-05-06T09:38:02.292Z,25.36
2018-05-06T09:40:29.412Z,25.11
2018-05-06T09:42:55.358Z,25.29
2018-05-06T09:45:21.277Z,25.35
2018-05-06T09:47:47.302Z,25.54
2018-05-06T09:50:13.087Z,25.59
2018-05-06T09:52:42.932Z,25.24
2018-05-06T09:55:08.869Z,25.56
2018-05-06T09:57:35.835Z,25.80
2018-05-06T10:00:01.747Z,26.14
2018-05-06T10:02:31.647Z,26.22
2018-05-06T10:04:57.559Z,26.10
2018-05-06T10:07:26.701Z,26.40
2018-05-06T10:09:52.623Z,26.29
2018-05-06T10:12:19.812Z,26.54
2018-05-06T10:14:46.890Z,26.32
2018-05-06T10:17:14.847Z,26.75
2018-05-06T10:19:40.736Z,26.88
2018-05-06T10:22:06.673Z,27.09
2018-05-06T10:24:32.548Z,27.24
2018-05-06T10:26:58.409Z,27.19
2018-05-06T10:29:28.134Z,26.85
2018-05-06T10:31:53.979Z,26.40
2018-05-06T10:34:21.177Z,26.84
2018-05-06T10:36:47.096Z,27.38
2018-05-06T10:39:16.695Z,27.50
2018-05-06T10:41:42.608Z,27.69
2018-05-06T10:44:12.000Z,28.01
2018-05-06T10:46:37.886Z,28.25
2018-05-06T10:49:07.072Z,28.54
2018-05-06T10:51:32.966Z,28.54
2018-05-06T10:53:59.922Z,28.40
2018-05-06T10:56:25.834Z,28.61
2018-05-06T10:58:51.756Z,28.31
2018-05-06T11:01:17.690Z,28.58
2018-05-06T11:03:43.594Z,28.54
2018-05-06T11:06:11.525Z,29.03
2018-05-06T11:08:37.437Z,28.96
2018-05-06T11:11:06.332Z,28.68
2018-05-06T11:13:32.239Z,28.63
2018-05-06T11:16:01.017Z,29.17
2018-05-06T11:18:26.913Z,29.05
2018-05-06T11:20:55.527Z,28.60
2018-05-06T11:23:21.467Z,28.73
2018-05-06T11:25:50.255Z,28.89
2018-05-06T11:28:16.138Z,28.79
2018-05-06T11:30:45.123Z,28.96
2018-05-06T11:33:11.012Z,29.20
2018-05-06T11:35:36.918Z,28.75
2018-05-06T11:38:02.804Z,29.15
2018-05-06T11:40:28.716Z,29.53
2018-05-06T11:42:58.475Z,29.24
2018-05-06T11:45:24.409Z,29.55
2018-05-06T11:47:53.422Z,29.96
2018-05-06T11:50:19.347Z,30.06
2018-05-06T11:52:46.982Z,29.84
2018-05-06T11:55:12.890Z,30.13
2018-05-06T11:57:42.191Z,30.36
2018-05-06T12:00:08.106Z,30.08
2018-05-06T12:02:37.545Z,30.18
2018-05-06T12:05:03.500Z,30.19
2018-05-06T12:07:31.147Z,30.48
2018-05-06T12:09:57.053Z,30.59
2018-05-06T12:12:22.966Z,29.90
2018-05-06T12:14:49.310Z,30.34
2018-05-06T12:17:15.204Z,30.72
2018-05-06T12:19:42.131Z,31.04
2018-05-06T12:22:08.027Z,31.36
2018-05-06T12:24:37.343Z,31.32
2018-05-06T12:27:03.247Z,30.60
2018-05-06T12:29:32.151Z,30.76
2018-05-06T12:31:58.102Z,30.77
2018-05-06T12:34:26.858Z,30.90
2018-05-06T12:36:52.781Z,31.04
2018-05-06T12:39:22.019Z,31.02
2018-05-06T12:41:47.933Z,30.86
2018-05-06T12:44:16.117Z,31.11
2018-05-06T12:46:42.090Z,31.03
2018-05-06T12:49:07.964Z,30.63
2018-05-06T12:51:33.900Z,30.81
2018-05-06T12:53:59.788Z,30.75
2018-05-06T12:56:27.708Z,30.54
2018-05-06T12:58:53.590Z,30.73
2018-05-06T13:01:22.678Z,31.06
2018-05-06T13:03:48.573Z,30.69
2018-05-06T13:06:18.176Z,30.79
2018-05-06T13:08:44.129Z,31.10
2018-05-06T13:11:11.755Z,31.30
2018-05-06T13:24:34.854Z,31.21
2018-05-06T13:27:00.748Z,31.31
2018-05-06T13:29:29.609Z,31.43
2018-05-06T13:31:55.529Z,30.66
2018-05-06T13:34:24.189Z,30.68
2018-05-06T13:36:50.118Z,30.80
2018-05-06T13:39:19.181Z,30.99
2018-05-06T13:41:45.076Z,31.01
2018-05-06T13:44:14.967Z,30.88
2018-05-06T13:46:40.853Z,30.97
2018-05-06T13:49:08.258Z,30.89
2018-05-06T13:51:34.207Z,30.99
2018-05-06T13:54:03.423Z,31.03
2018-05-06T13:56:29.349Z,30.73
2018-05-06T13:58:58.108Z,31.07
2018-05-06T14:01:24.098Z,30.69
2018-05-06T14:03:53.932Z,30.99
2018-05-06T14:06:19.814Z,31.10
2018-05-06T14:08:47.095Z,30.83
2018-05-06T14:11:12.983Z,31.30
2018-05-06T14:13:42.801Z,30.80
2018-05-06T14:16:08.711Z,30.69
2018-05-06T14:18:34.653Z,31.15
2018-05-06T14:21:00.572Z,31.06
2018-05-06T14:23:26.430Z,31.16
2018-05-06T14:25:54.084Z,31.23
2018-05-06T14:28:20.003Z,31.26
2018-05-06T14:30:49.813Z,31.17
2018-05-06T14:33:15.683Z,31.00
2018-05-06T14:35:44.682Z,31.24
2018-05-06T14:38:10.581Z,31.13
2018-05-06T14:40:37.648Z,31.22
2018-05-06T14:43:03.582Z,30.69
2018-05-06T14:45:33.351Z,31.02
2018-05-06T14:48:11.695Z,31.11
2018-05-06T14:50:37.636Z,31.28
2018-05-06T14:53:03.544Z,31.13
2018-05-06T14:55:29.402Z,31.55
2018-05-06T14:57:55.271Z,31.84
2018-05-06T15:00:21.182Z,31.97
2018-05-06T15:02:47.092Z,31.60
2018-05-06T15:05:12.949Z,30.95
2018-05-06T15:07:38.885Z,30.91
2018-05-06T15:10:04.787Z,30.94
2018-05-06T15:12:30.699Z,31.14
2018-05-06T15:15:00.648Z,30.83
2018-05-06T15:17:26.573Z,30.69
2018-05-06T15:19:52.520Z,31.08
2018-05-06T15:22:18.508Z,30.51
2018-05-06T15:24:44.358Z,30.75
2018-05-06T15:27:13.706Z,30.74
2018-05-06T15:29:39.586Z,30.77
2018-05-06T15:32:05.494Z,30.42
2018-05-06T15:34:31.399Z,30.50
2018-05-06T15:36:57.312Z,30.28
2018-05-06T15:39:25.044Z,30.07
2018-05-06T15:41:50.951Z,30.20
2018-05-06T15:44:20.118Z,30.13
2018-05-06T15:46:46.061Z,30.18
2018-05-06T15:49:13.689Z,30.16
2018-05-06T15:51:39.623Z,30.18
2018-05-06T15:54:08.674Z,29.82
2018-05-06T15:56:34.604Z,30.00
2018-05-06T15:59:03.090Z,29.69
2018-05-06T16:01:29.008Z,29.60
2018-05-06T16:04:10.386Z,29.66
2018-05-06T16:06:36.340Z,29.75
2018-05-06T16:09:02.246Z,29.89
2018-05-06T16:11:28.163Z,29.71
2018-05-06T16:13:54.087Z,29.38
2018-05-06T16:16:19.958Z,28.96
2018-05-06T16:18:45.876Z,28.97
2018-05-06T16:21:11.802Z,28.88
2018-05-06T16:23:37.742Z,28.64
2018-05-06T16:26:03.659Z,28.33
2018-05-06T16:28:29.525Z,28.18
2018-05-06T16:30:55.431Z,28.05
2018-05-06T16:33:21.315Z,27.80
2018-05-06T16:35:48.233Z,28.03
2018-05-06T16:38:14.135Z,27.72
2018-05-06T16:40:43.046Z,27.87
2018-05-06T16:43:08.937Z,28.00
2018-05-06T16:45:34.848Z,27.70
2018-05-06T16:48:00.760Z,27.57
2018-05-06T16:50:26.638Z,27.34
2018-05-06T16:52:56.421Z,27.07
2018-05-06T16:55:22.297Z,26.82
2018-05-06T16:57:51.511Z,26.96
2018-05-06T17:00:17.437Z,26.85
2018-05-06T17:02:44.367Z,26.50
2018-05-06T17:05:10.258Z,26.35
2018-05-06T17:07:39.207Z,26.36
2018-05-06T17:10:05.085Z,26.37
2018-05-06T17:12:34.123Z,26.21
2018-05-06T17:15:00.892Z,25.98
2018-05-06T17:17:29.900Z,25.91
2018-05-06T17:19:55.794Z,25.73
2018-05-06T17:22:21.738Z,25.71
2018-05-06T17:24:47.626Z,25.35
2018-05-06T17:27:13.518Z,25.31
2018-05-06T17:29:40.066Z,25.23
2018-05-06T17:32:05.980Z,25.05
2018-05-06T17:34:34.880Z,24.87
2018-05-06T17:37:00.763Z,24.71
2018-05-06T17:39:30.625Z,24.78
2018-05-06T17:41:56.522Z,24.81
2018-05-06T17:44:24.235Z,24.63
2018-05-06T17:46:50.165Z,24.55
2018-05-06T17:49:18.868Z,24.48
2018-05-06T17:51:44.755Z,24.40
2018-05-06T17:54:13.437Z,24.19
2018-05-06T17:56:39.386Z,24.19
2018-05-06T17:59:05.289Z,24.17
2018-05-06T18:01:31.207Z,24.02
2018-05-06T18:03:57.119Z,23.86
2018-05-06T18:06:26.160Z,23.69
2018-05-06T18:08:52.067Z,23.73
2018-05-06T18:11:22.357Z,23.74
2018-05-06T18:13:48.237Z,23.69
2018-05-06T18:16:14.772Z,23.58
2018-05-06T18:18:40.659Z,23.54
2018-05-06T18:21:09.294Z,23.41
2018-05-06T18:23:35.220Z,23.27
2018-05-06T18:26:04.295Z,23.17
2018-05-06T18:28:30.203Z,23.12
2018-05-06T18:30:59.091Z,22.96
2018-05-06T18:33:24.948Z,22.87
2018-05-06T18:35:50.797Z,22.80
2018-05-06T18:38:16.699Z,22.70
2018-05-06T18:40:42.604Z,22.60
2018-05-06T18:43:11.822Z,22.30
2018-05-06T18:45:37.711Z,22.30
2018-05-06T18:48:05.382Z,22.22
2018-05-06T18:50:31.295Z,22.04
2018-05-06T18:53:00.042Z,22.09
2018-05-06T18:55:25.938Z,22.05
2018-05-06T18:57:54.872Z,21.80
2018-05-06T19:00:20.718Z,21.76
2018-05-06T19:02:49.358Z,21.70
2018-05-06T19:05:15.286Z,21.59
2018-05-06T19:07:44.819Z,21.61
2018-05-06T19:10:10.750Z,21.52
2018-05-06T19:12:36.690Z,21.33
2018-05-06T19:15:02.614Z,21.19
2018-05-06T19:17:28.504Z,21.12
2018-05-06T19:19:57.734Z,21.21
2018-05-06T19:22:23.583Z,21.17
2018-05-06T19:24:50.626Z,21.17
2018-05-06T19:27:16.490Z,21.01
2018-05-06T19:29:45.618Z,20.97
2018-05-06T19:32:11.478Z,20.87
2018-05-06T19:34:40.968Z,20.82
2018-05-06T19:37:06.920Z,20.83
2018-05-06T19:39:34.721Z,20.95
2018-05-06T19:42:00.588Z,20.97
2018-05-06T19:44:29.733Z,20.94
2018-05-06T19:46:55.643Z,20.85
2018-05-06T19:49:21.552Z,20.82
2018-05-06T19:51:47.431Z,20.93
2018-05-06T19:54:13.340Z,20.88
2018-05-06T19:56:41.168Z,20.88
2018-05-06T19:59:07.138Z,20.82
2018-05-06T20:01:39.852Z,20.76
2018-05-06T20:04:05.783Z,20.74
2018-05-06T20:06:31.703Z,20.70
2018-05-06T20:08:57.574Z,20.67
2018-05-06T20:11:27.324Z,20.66
2018-05-06T20:13:53.259Z,20.67
2018-05-06T20:16:21.088Z,20.50
2018-05-06T20:18:46.959Z,20.36
2018-05-06T20:21:16.714Z,20.38
2018-05-06T20:23:42.604Z,20.32
2018-05-06T20:26:08.498Z,20.35
2018-05-06T20:28:34.364Z,20.35
2018-05-06T20:31:00.280Z,20.31
2018-05-06T20:33:26.808Z,20.28
2018-05-06T20:35:52.679Z,20.22
2018-05-06T20:38:21.249Z,20.14
2018-05-06T20:40:47.192Z,20.08
2018-05-06T20:43:16.030Z,20.03
2018-05-06T20:45:41.913Z,19.96
2018-05-06T20:48:10.540Z,19.90
2018-05-06T20:50:36.378Z,19.87
2018-05-06T20:53:05.213Z,19.83
2018-05-06T20:55:31.198Z,19.79
2018-05-06T20:57:59.905Z,19.81
2018-05-06T21:00:25.752Z,19.72
2018-05-06T21:02:51.646Z,19.70
2018-05-06T21:05:17.513Z,19.68
2018-05-06T21:07:43.383Z,19.63
2018-05-06T21:10:12.574Z,19.61
2018-05-06T21:12:41.971Z,19.59
2018-05-06T21:15:07.837Z,19.53
2018-05-06T21:17:33.733Z,19.55
2018-05-06T21:20:02.939Z,19.49
2018-05-06T21:22:28.781Z,19.44
2018-05-06T21:24:56.043Z,19.39
2018-05-06T21:27:21.888Z,19.32
2018-05-06T21:29:51.043Z,19.31
2018-05-06T21:32:16.913Z,19.26
2018-05-06T21:34:45.961Z,19.20
2018-05-06T21:37:11.835Z,19.17
2018-05-06T21:39:37.743Z,19.17
2018-05-06T21:42:03.550Z,19.13
2018-05-06T21:44:29.391Z,19.12
2018-05-06T21:46:57.140Z,19.14
2018-05-06T21:49:22.965Z,19.08
2018-05-06T21:54:23.548Z,19.00
2018-05-06T21:56:49.396Z,18.97
2018-05-06T21:59:15.245Z,18.97
2018-05-06T22:01:41.573Z,18.95
2018-05-06T22:04:07.422Z,18.96
2018-05-06T22:06:37.274Z,18.86
2018-05-06T22:09:03.224Z,18.86
2018-05-06T22:11:30.982Z,18.87
2018-05-06T22:13:56.909Z,18.85
2018-05-06T22:16:22.741Z,18.80
2018-05-06T22:18:48.597Z,18.76
2018-05-06T22:21:14.418Z,18.64
2018-05-06T22:23:43.579Z,18.64
2018-05-06T22:26:09.422Z,18.57
2018-05-06T22:28:37.466Z,18.61
2018-05-06T22:31:03.346Z,18.55
2018-05-06T22:33:32.542Z,18.54
2018-05-06T22:35:58.373Z,18.53
2018-05-06T22:38:27.502Z,18.55
2018-05-06T22:40:53.337Z,18.55
2018-05-06T22:43:22.557Z,18.50
2018-05-06T22:45:48.438Z,18.47
2018-05-06T22:48:17.638Z,18.46
2018-05-06T22:50:49.769Z,18.40
2018-05-06T22:53:15.607Z,18.29
2018-05-06T22:55:41.456Z,18.29
2018-05-06T22:58:07.354Z,18.20
2018-05-06T23:00:33.235Z,18.15
2018-05-06T23:02:59.068Z,17.92
2018-05-06T23:05:24.901Z,17.77
2018-05-06T23:07:50.785Z,17.39
2018-05-06T23:10:17.844Z,17.12
2018-05-06T23:12:43.703Z,17.02
2018-05-06T23:15:13.018Z,17.00
2018-05-06T23:17:38.852Z,16.90
2018-05-06T23:20:07.839Z,16.80
2018-05-06T23:22:33.713Z,16.73
2018-05-06T23:25:02.848Z,16.44
2018-05-06T23:27:28.697Z,16.49
2018-05-06T23:29:54.615Z,16.45
2018-05-06T23:32:20.492Z,16.39
2018-05-06T23:34:46.355Z,16.45
2018-05-06T23:37:12.998Z,16.48
2018-05-06T23:39:38.892Z,16.56
2018-05-06T23:42:11.569Z,16.50
2018-05-06T23:44:37.429Z,16.43
2018-05-06T23:47:03.300Z,16.43
2018-05-06T23:49:29.179Z,16.34
2018-05-06T23:51:58.247Z,16.24
2018-05-06T23:54:24.088Z,16.23
2018-05-06T23:56:52.170Z,16.25
2018-05-06T23:59:18.045Z,16.26
